sensor_id;sensor_type;location;lat;lon;timestamp;temperature;humidity
19389;DHT22;9830;41.876;23.474;2022-11-20T00:00:45;14.80;99.90
19389;DHT22;9830;41.876;23.474;2022-11-20T00:03:11;14.70;99.90
19389;DHT22;9830;41.876;23.474;2022-11-20T00:05:37;14.70;99.90
19389;DHT22;9830;41.876;23.474;2022-11-20T00:08:04;14.70;99.90
19389;DHT22;9830;41.876;23.474;2022-11-20T00:10:30;14.50;99.90
19389;DHT22;9830;41.876;23.474;2022-11-20T00:12:57;14.40;99.90
19389;DHT22;9830;41.876;23.474;2022-11-20T00:15:22;14.30;99.90
19389;DHT22;9830;41.876;23.474;2022-11-20T00:17:48;14.30;99.90
19389;DHT22;9830;41.876;23.474;2022-11-20T00:20:14;14.30;99.90
19389;DHT22;9830;41.876;23.474;2022-11-20T00:22:40;14.40;99.90
19389;DHT22;9830;41.876;23.474;2022-11-20T00:25:05;14.40;99.90
19389;DHT22;9830;41.876;23.474;2022-11-20T00:27:31;14.40;99.90
19389;DHT22;9830;41.876;23.474;2022-11-20T00:29:57;14.50;99.90
19389;DHT22;9830;41.876;23.474;2022-11-20T00:32:22;14.40;99.90
19389;DHT22;9830;41.876;23.474;2022-11-20T00:34:48;14.50;99.90
19389;DHT22;9830;41.876;23.474;2022-11-20T00:37:14;14.50;99.90
19389;DHT22;9830;41.876;23.474;2022-11-20T00:39:39;14.50;99.90
19389;DHT22;9830;41.876;23.474;2022-11-20T00:42:05;14.50;99.90
19389;DHT22;9830;41.876;23.474;2022-11-20T00:44:31;14.40;99.90
19389;DHT22;9830;41.876;23.474;2022-11-20T00:46:56;14.40;99.90
19389;DHT22;9830;41.876;23.474;2022-11-20T00:49:22;14.40;99.90
19389;DHT22;9830;41.876;23.474;2022-11-20T00:51:48;14.40;99.90
19389;DHT22;9830;41.876;23.474;2022-11-20T00:54:13;14.40;99.90
19389;DHT22;9830;41.876;23.474;2022-11-20T00:56:39;14.50;99.90
19389;DHT22;9830;41.876;23.474;2022-11-20T00:59:05;14.40;99.90
19389;DHT22;9830;41.876;23.474;2022-11-20T01:01:31;14.40;99.90
19389;DHT22;9830;41.876;23.474;2022-11-20T01:03:59;14.40;99.90
19389;DHT22;9830;41.876;23.474;2022-11-20T01:06:33;14.30;99.90
19389;DHT22;9830;41.876;23.474;2022-11-20T01:09:01;14.20;99.90
19389;DHT22;9830;41.876;23.474;2022-11-20T01:11:29;14.40;99.90
19389;DHT22;9830;41.876;23.474;2022-11-20T01:13:57;14.60;99.90
19389;DHT22;9830;41.876;23.474;2022-11-20T01:16:28;14.50;99.90
19389;DHT22;9830;41.876;23.474;2022-11-20T01:18:57;14.20;99.90
19389;DHT22;9830;41.876;23.474;2022-11-20T01:21:26;14.00;99.90
19389;DHT22;9830;41.876;23.474;2022-11-20T01:23:52;13.90;99.90
19389;DHT22;9830;41.876;23.474;2022-11-20T01:26:23;14.20;99.90
19389;DHT22;9830;41.876;23.474;2022-11-20T01:28:49;14.30;99.90
19389;DHT22;9830;41.876;23.474;2022-11-20T01:31:21;14.40;99.90
19389;DHT22;9830;41.876;23.474;2022-11-20T01:33:48;14.50;99.90
19389;DHT22;9830;41.876;23.474;2022-11-20T01:36:15;14.50;99.90
19389;DHT22;9830;41.876;23.474;2022-11-20T01:38:42;14.60;99.90
19389;DHT22;9830;41.876;23.474;2022-11-20T01:41:10;14.70;99.90
19389;DHT22;9830;41.876;23.474;2022-11-20T01:43:36;14.80;99.90
19389;DHT22;9830;41.876;23.474;2022-11-20T01:46:19;14.90;99.90
19389;DHT22;9830;41.876;23.474;2022-11-20T01:48:50;14.70;99.90
19389;DHT22;9830;41.876;23.474;2022-11-20T01:51:39;14.60;99.90
19389;DHT22;9830;41.876;23.474;2022-11-20T01:54:10;14.60;99.90
19389;DHT22;9830;41.876;23.474;2022-11-20T01:56:40;14.70;99.90
19389;DHT22;9830;41.876;23.474;2022-11-20T01:59:08;14.70;99.90
19389;DHT22;9830;41.876;23.474;2022-11-20T02:01:35;14.60;99.90
19389;DHT22;9830;41.876;23.474;2022-11-20T02:04:01;14.70;99.90
19389;DHT22;9830;41.876;23.474;2022-11-20T02:06:42;14.50;99.90
19389;DHT22;9830;41.876;23.474;2022-11-20T02:09:09;14.60;99.90
19389;DHT22;9830;41.876;23.474;2022-11-20T02:11:35;14.70;99.90
19389;DHT22;9830;41.876;23.474;2022-11-20T02:14:01;14.70;99.90
19389;DHT22;9830;41.876;23.474;2022-11-20T02:16:59;14.80;99.90
19389;DHT22;9830;41.876;23.474;2022-11-20T02:19:30;14.80;99.90
19389;DHT22;9830;41.876;23.474;2022-11-20T02:22:12;14.90;99.90
19389;DHT22;9830;41.876;23.474;2022-11-20T02:24:40;14.80;99.90
19389;DHT22;9830;41.876;23.474;2022-11-20T02:27:10;14.70;99.90
19389;DHT22;9830;41.876;23.474;2022-11-20T02:29:57;14.60;99.90
19389;DHT22;9830;41.876;23.474;2022-11-20T02:32:35;14.70;99.90
19389;DHT22;9830;41.876;23.474;2022-11-20T02:37:54;14.80;99.90
19389;DHT22;9830;41.876;23.474;2022-11-20T02:40:20;14.90;99.90
19389;DHT22;9830;41.876;23.474;2022-11-20T02:42:47;14.90;99.90
19389;DHT22;9830;41.876;23.474;2022-11-20T02:45:13;14.90;99.90
19389;DHT22;9830;41.876;23.474;2022-11-20T02:47:39;14.90;99.90
19389;DHT22;9830;41.876;23.474;2022-11-20T02:50:05;14.90;99.90
19389;DHT22;9830;41.876;23.474;2022-11-20T02:52:31;14.90;99.90
19389;DHT22;9830;41.876;23.474;2022-11-20T02:54:57;14.90;99.90
19389;DHT22;9830;41.876;23.474;2022-11-20T02:57:22;14.80;99.90
19389;DHT22;9830;41.876;23.474;2022-11-20T02:59:48;14.80;99.90
19389;DHT22;9830;41.876;23.474;2022-11-20T03:02:14;14.70;99.90
19389;DHT22;9830;41.876;23.474;2022-11-20T03:04:39;14.70;99.90
19389;DHT22;9830;41.876;23.474;2022-11-20T03:07:05;14.60;99.90
19389;DHT22;9830;41.876;23.474;2022-11-20T03:09:31;14.60;99.90
19389;DHT22;9830;41.876;23.474;2022-11-20T03:11:56;14.50;99.90
19389;DHT22;9830;41.876;23.474;2022-11-20T03:14:22;14.50;99.90
19389;DHT22;9830;41.876;23.474;2022-11-20T03:16:48;14.50;99.90
19389;DHT22;9830;41.876;23.474;2022-11-20T03:19:13;14.50;99.90
19389;DHT22;9830;41.876;23.474;2022-11-20T03:21:39;14.50;99.90
19389;DHT22;9830;41.876;23.474;2022-11-20T03:24:06;14.60;99.90
19389;DHT22;9830;41.876;23.474;2022-11-20T03:26:32;14.60;99.90
19389;DHT22;9830;41.876;23.474;2022-11-20T03:29:02;14.50;99.90
19389;DHT22;9830;41.876;23.474;2022-11-20T03:31:35;14.50;99.90
19389;DHT22;9830;41.876;23.474;2022-11-20T03:34:02;14.60;99.90
19389;DHT22;9830;41.876;23.474;2022-11-20T03:36:28;14.50;99.90
19389;DHT22;9830;41.876;23.474;2022-11-20T03:38:55;14.50;99.90
19389;DHT22;9830;41.876;23.474;2022-11-20T03:41:25;14.50;99.90
19389;DHT22;9830;41.876;23.474;2022-11-20T03:44:00;14.40;99.90
19389;DHT22;9830;41.876;23.474;2022-11-20T03:46:27;14.30;99.90
19389;DHT22;9830;41.876;23.474;2022-11-20T03:48:53;14.30;99.90
19389;DHT22;9830;41.876;23.474;2022-11-20T03:51:24;14.30;99.90
19389;DHT22;9830;41.876;23.474;2022-11-20T03:53:52;14.30;99.90
19389;DHT22;9830;41.876;23.474;2022-11-20T03:56:20;14.30;99.90
19389;DHT22;9830;41.876;23.474;2022-11-20T03:58:47;14.20;99.90
19389;DHT22;9830;41.876;23.474;2022-11-20T04:01:19;14.10;99.90
19389;DHT22;9830;41.876;23.474;2022-11-20T04:03:45;14.00;99.90
19389;DHT22;9830;41.876;23.474;2022-11-20T04:06:15;14.00;99.90
19389;DHT22;9830;41.876;23.474;2022-11-20T04:08:41;14.00;99.90
19389;DHT22;9830;41.876;23.474;2022-11-20T04:11:16;13.90;99.90
19389;DHT22;9830;41.876;23.474;2022-11-20T04:13:45;13.90;99.90
19389;DHT22;9830;41.876;23.474;2022-11-20T04:16:11;13.90;99.90
19389;DHT22;9830;41.876;23.474;2022-11-20T04:18:37;13.80;99.90
19389;DHT22;9830;41.876;23.474;2022-11-20T04:21:03;13.80;99.90
19389;DHT22;9830;41.876;23.474;2022-11-20T04:23:29;13.80;99.90
19389;DHT22;9830;41.876;23.474;2022-11-20T04:26:04;13.80;99.90
19389;DHT22;9830;41.876;23.474;2022-11-20T04:28:31;13.80;99.90
19389;DHT22;9830;41.876;23.474;2022-11-20T04:31:11;13.70;99.90
19389;DHT22;9830;41.876;23.474;2022-11-20T04:33:38;13.60;99.90
19389;DHT22;9830;41.876;23.474;2022-11-20T04:36:06;13.60;99.90
19389;DHT22;9830;41.876;23.474;2022-11-20T04:38:33;13.60;99.90
19389;DHT22;9830;41.876;23.474;2022-11-20T04:41:03;13.70;99.90
19389;DHT22;9830;41.876;23.474;2022-11-20T04:43:30;13.60;99.90
19389;DHT22;9830;41.876;23.474;2022-11-20T04:45:57;13.60;99.90
19389;DHT22;9830;41.876;23.474;2022-11-20T04:48:24;13.50;99.90
19389;DHT22;9830;41.876;23.474;2022-11-20T04:50:50;13.50;99.90
19389;DHT22;9830;41.876;23.474;2022-11-20T04:53:16;13.60;99.90
19389;DHT22;9830;41.876;23.474;2022-11-20T04:55:42;13.60;99.90
19389;DHT22;9830;41.876;23.474;2022-11-20T04:58:08;13.60;99.90
19389;DHT22;9830;41.876;23.474;2022-11-20T05:00:33;13.60;99.90
19389;DHT22;9830;41.876;23.474;2022-11-20T05:02:59;13.60;99.90
19389;DHT22;9830;41.876;23.474;2022-11-20T05:05:25;13.60;99.90
19389;DHT22;9830;41.876;23.474;2022-11-20T05:07:51;13.60;99.90
19389;DHT22;9830;41.876;23.474;2022-11-20T05:10:17;13.60;99.90
19389;DHT22;9830;41.876;23.474;2022-11-20T05:12:42;13.50;99.90
19389;DHT22;9830;41.876;23.474;2022-11-20T05:15:08;13.60;99.90
19389;DHT22;9830;41.876;23.474;2022-11-20T05:17:34;13.50;99.90
19389;DHT22;9830;41.876;23.474;2022-11-20T05:20:00;13.50;99.90
19389;DHT22;9830;41.876;23.474;2022-11-20T05:22:25;13.50;99.90
19389;DHT22;9830;41.876;23.474;2022-11-20T05:24:51;13.50;99.90
19389;DHT22;9830;41.876;23.474;2022-11-20T05:27:17;13.50;99.90
19389;DHT22;9830;41.876;23.474;2022-11-20T05:29:43;13.50;99.90
19389;DHT22;9830;41.876;23.474;2022-11-20T05:32:08;13.50;99.90
19389;DHT22;9830;41.876;23.474;2022-11-20T05:34:35;13.40;99.90
19389;DHT22;9830;41.876;23.474;2022-11-20T05:37:01;13.50;99.90
19389;DHT22;9830;41.876;23.474;2022-11-20T05:39:27;13.50;99.90
19389;DHT22;9830;41.876;23.474;2022-11-20T05:41:53;13.60;99.90
19389;DHT22;9830;41.876;23.474;2022-11-20T05:44:39;13.60;99.90
19389;DHT22;9830;41.876;23.474;2022-11-20T05:47:05;13.60;99.90
19389;DHT22;9830;41.876;23.474;2022-11-20T05:49:31;13.70;99.90
19389;DHT22;9830;41.876;23.474;2022-11-20T05:51:57;13.70;99.90
19389;DHT22;9830;41.876;23.474;2022-11-20T05:54:22;13.60;99.90
19389;DHT22;9830;41.876;23.474;2022-11-20T05:56:48;13.60;99.90
19389;DHT22;9830;41.876;23.474;2022-11-20T05:59:14;13.60;99.90
19389;DHT22;9830;41.876;23.474;2022-11-20T06:01:39;13.50;99.90
19389;DHT22;9830;41.876;23.474;2022-11-20T06:04:05;13.40;99.90
19389;DHT22;9830;41.876;23.474;2022-11-20T06:06:30;13.50;99.90
19389;DHT22;9830;41.876;23.474;2022-11-20T06:08:56;13.60;99.90
19389;DHT22;9830;41.876;23.474;2022-11-20T06:11:24;13.60;99.90
19389;DHT22;9830;41.876;23.474;2022-11-20T06:13:50;13.60;99.90
19389;DHT22;9830;41.876;23.474;2022-11-20T06:16:18;13.60;99.90
19389;DHT22;9830;41.876;23.474;2022-11-20T06:18:45;13.60;99.90
19389;DHT22;9830;41.876;23.474;2022-11-20T06:21:16;13.60;99.90
19389;DHT22;9830;41.876;23.474;2022-11-20T06:23:43;13.60;99.90
19389;DHT22;9830;41.876;23.474;2022-11-20T06:26:18;13.80;99.90
19389;DHT22;9830;41.876;23.474;2022-11-20T06:28:44;13.90;99.90
19389;DHT22;9830;41.876;23.474;2022-11-20T06:31:12;13.90;99.90
19389;DHT22;9830;41.876;23.474;2022-11-20T06:33:39;13.90;99.90
19389;DHT22;9830;41.876;23.474;2022-11-20T06:36:05;13.90;99.90
19389;DHT22;9830;41.876;23.474;2022-11-20T06:38:31;13.90;99.90
19389;DHT22;9830;41.876;23.474;2022-11-20T06:40:57;13.90;99.90
19389;DHT22;9830;41.876;23.474;2022-11-20T06:43:24;14.00;99.90
19389;DHT22;9830;41.876;23.474;2022-11-20T06:45:55;14.00;99.90
19389;DHT22;9830;41.876;23.474;2022-11-20T06:48:22;14.10;99.90
19389;DHT22;9830;41.876;23.474;2022-11-20T06:50:48;14.10;99.90
19389;DHT22;9830;41.876;23.474;2022-11-20T06:53:14;14.10;99.90
19389;DHT22;9830;41.876;23.474;2022-11-20T06:55:47;14.10;99.90
19389;DHT22;9830;41.876;23.474;2022-11-20T06:58:14;14.20;99.90
19389;DHT22;9830;41.876;23.474;2022-11-20T07:00:40;14.30;99.90
19389;DHT22;9830;41.876;23.474;2022-11-20T07:03:07;14.30;99.90
19389;DHT22;9830;41.876;23.474;2022-11-20T07:05:34;14.40;99.90
19389;DHT22;9830;41.876;23.474;2022-11-20T07:08:00;14.40;99.90
19389;DHT22;9830;41.876;23.474;2022-11-20T07:10:26;14.50;99.90
19389;DHT22;9830;41.876;23.474;2022-11-20T07:12:52;14.50;99.90
19389;DHT22;9830;41.876;23.474;2022-11-20T07:15:20;14.70;99.90
19389;DHT22;9830;41.876;23.474;2022-11-20T07:17:46;14.70;99.90
19389;DHT22;9830;41.876;23.474;2022-11-20T07:20:12;14.70;99.90
19389;DHT22;9830;41.876;23.474;2022-11-20T07:22:38;14.80;99.90
19389;DHT22;9830;41.876;23.474;2022-11-20T07:25:04;14.70;99.90
19389;DHT22;9830;41.876;23.474;2022-11-20T07:27:30;14.60;99.90
19389;DHT22;9830;41.876;23.474;2022-11-20T07:29:56;14.60;99.90
19389;DHT22;9830;41.876;23.474;2022-11-20T07:32:22;14.60;99.90
19389;DHT22;9830;41.876;23.474;2022-11-20T07:34:48;14.60;99.90
19389;DHT22;9830;41.876;23.474;2022-11-20T07:37:14;14.50;99.90
19389;DHT22;9830;41.876;23.474;2022-11-20T07:39:40;14.50;99.90
19389;DHT22;9830;41.876;23.474;2022-11-20T07:42:07;14.50;99.90
19389;DHT22;9830;41.876;23.474;2022-11-20T07:44:33;14.60;99.90
19389;DHT22;9830;41.876;23.474;2022-11-20T07:46:59;14.50;99.90
19389;DHT22;9830;41.876;23.474;2022-11-20T07:49:25;14.50;99.90
19389;DHT22;9830;41.876;23.474;2022-11-20T07:51:51;14.50;99.90
19389;DHT22;9830;41.876;23.474;2022-11-20T07:54:19;14.50;99.90
19389;DHT22;9830;41.876;23.474;2022-11-20T07:56:45;14.60;99.90
19389;DHT22;9830;41.876;23.474;2022-11-20T07:59:11;14.60;99.90
19389;DHT22;9830;41.876;23.474;2022-11-20T08:01:38;14.70;99.90
19389;DHT22;9830;41.876;23.474;2022-11-20T08:04:04;14.80;99.90
19389;DHT22;9830;41.876;23.474;2022-11-20T08:06:30;14.80;99.90
19389;DHT22;9830;41.876;23.474;2022-11-20T08:08:55;15.10;99.90
19389;DHT22;9830;41.876;23.474;2022-11-20T08:11:21;15.30;99.90
19389;DHT22;9830;41.876;23.474;2022-11-20T08:14:05;15.40;99.90
19389;DHT22;9830;41.876;23.474;2022-11-20T08:16:37;15.30;99.90
19389;DHT22;9830;41.876;23.474;2022-11-20T08:19:03;15.10;99.90
19389;DHT22;9830;41.876;23.474;2022-11-20T08:21:30;15.00;99.90
19389;DHT22;9830;41.876;23.474;2022-11-20T08:23:57;15.00;99.90
19389;DHT22;9830;41.876;23.474;2022-11-20T08:26:24;15.00;99.90
19389;DHT22;9830;41.876;23.474;2022-11-20T08:28:53;15.00;99.90
19389;DHT22;9830;41.876;23.474;2022-11-20T08:31:20;15.00;99.90
19389;DHT22;9830;41.876;23.474;2022-11-20T08:33:46;15.00;99.90
19389;DHT22;9830;41.876;23.474;2022-11-20T08:36:11;15.10;99.90
19389;DHT22;9830;41.876;23.474;2022-11-20T08:38:37;15.00;99.90
19389;DHT22;9830;41.876;23.474;2022-11-20T08:41:04;15.00;99.90
19389;DHT22;9830;41.876;23.474;2022-11-20T08:43:48;14.90;99.90
19389;DHT22;9830;41.876;23.474;2022-11-20T08:46:14;14.80;99.90
19389;DHT22;9830;41.876;23.474;2022-11-20T08:48:40;14.70;99.90
19389;DHT22;9830;41.876;23.474;2022-11-20T08:51:05;14.70;99.90
19389;DHT22;9830;41.876;23.474;2022-11-20T08:53:31;14.70;99.90
19389;DHT22;9830;41.876;23.474;2022-11-20T08:55:57;14.70;99.90
19389;DHT22;9830;41.876;23.474;2022-11-20T08:58:23;14.80;99.90
19389;DHT22;9830;41.876;23.474;2022-11-20T09:00:48;14.80;99.90
19389;DHT22;9830;41.876;23.474;2022-11-20T09:03:14;14.90;99.90
19389;DHT22;9830;41.876;23.474;2022-11-20T09:05:40;14.90;99.90
19389;DHT22;9830;41.876;23.474;2022-11-20T09:08:05;14.80;99.90
19389;DHT22;9830;41.876;23.474;2022-11-20T09:10:31;14.60;99.90
19389;DHT22;9830;41.876;23.474;2022-11-20T09:12:57;14.60;99.90
19389;DHT22;9830;41.876;23.474;2022-11-20T09:15:24;14.50;99.90
19389;DHT22;9830;41.876;23.474;2022-11-20T09:17:59;14.50;99.90
19389;DHT22;9830;41.876;23.474;2022-11-20T09:20:26;14.60;99.90
19389;DHT22;9830;41.876;23.474;2022-11-20T09:22:54;14.70;99.90
19389;DHT22;9830;41.876;23.474;2022-11-20T09:25:20;14.90;99.90
19389;DHT22;9830;41.876;23.474;2022-11-20T09:27:46;14.90;99.90
19389;DHT22;9830;41.876;23.474;2022-11-20T09:30:13;14.90;99.90
19389;DHT22;9830;41.876;23.474;2022-11-20T09:32:39;14.80;99.90
19389;DHT22;9830;41.876;23.474;2022-11-20T09:35:05;14.90;99.90
19389;DHT22;9830;41.876;23.474;2022-11-20T09:37:31;14.80;99.90
19389;DHT22;9830;41.876;23.474;2022-11-20T09:39:57;14.80;99.90
19389;DHT22;9830;41.876;23.474;2022-11-20T09:56:12;15.00;99.90
19389;DHT22;9830;41.876;23.474;2022-11-20T09:58:50;15.00;99.90
19389;DHT22;9830;41.876;23.474;2022-11-20T10:01:36;14.90;99.90
19389;DHT22;9830;41.876;23.474;2022-11-20T10:04:04;14.90;99.90
19389;DHT22;9830;41.876;23.474;2022-11-20T10:17:39;14.50;99.90
19389;DHT22;9830;41.876;23.474;2022-11-20T10:20:34;14.40;99.90
19389;DHT22;9830;41.876;23.474;2022-11-20T10:29:13;14.70;99.90
19389;DHT22;9830;41.876;23.474;2022-11-20T10:31:45;14.70;99.90
19389;DHT22;9830;41.876;23.474;2022-11-20T10:34:17;14.60;99.90
19389;DHT22;9830;41.876;23.474;2022-11-20T10:36:55;14.60;99.90
19389;DHT22;9830;41.876;23.474;2022-11-20T10:39:35;14.70;99.90
19389;DHT22;9830;41.876;23.474;2022-11-20T10:42:02;14.60;99.90
19389;DHT22;9830;41.876;23.474;2022-11-20T10:44:29;14.60;99.90
19389;DHT22;9830;41.876;23.474;2022-11-20T10:47:16;14.60;99.90
19389;DHT22;9830;41.876;23.474;2022-11-20T10:49:45;14.50;99.90
19389;DHT22;9830;41.876;23.474;2022-11-20T10:58:03;14.80;99.90
19389;DHT22;9830;41.876;23.474;2022-11-20T11:00:33;14.70;99.90
19389;DHT22;9830;41.876;23.474;2022-11-20T11:02:58;14.70;99.90
19389;DHT22;9830;41.876;23.474;2022-11-20T11:07:55;14.50;99.90
19389;DHT22;9830;41.876;23.474;2022-11-20T11:13:23;14.50;99.90
19389;DHT22;9830;41.876;23.474;2022-11-20T11:15:49;14.40;99.90
19389;DHT22;9830;41.876;23.474;2022-11-20T11:18:32;14.30;99.90
19389;DHT22;9830;41.876;23.474;2022-11-20T11:21:03;14.30;99.90
19389;DHT22;9830;41.876;23.474;2022-11-20T11:23:36;14.20;99.90
19389;DHT22;9830;41.876;23.474;2022-11-20T11:26:05;14.20;99.90
19389;DHT22;9830;41.876;23.474;2022-11-20T11:28:31;14.10;99.90
19389;DHT22;9830;41.876;23.474;2022-11-20T11:30:57;14.10;99.90
19389;DHT22;9830;41.876;23.474;2022-11-20T11:33:24;14.10;99.90
19389;DHT22;9830;41.876;23.474;2022-11-20T11:35:55;14.10;99.90
19389;DHT22;9830;41.876;23.474;2022-11-20T11:38:35;14.00;99.90
19389;DHT22;9830;41.876;23.474;2022-11-20T11:41:02;14.10;99.90
19389;DHT22;9830;41.876;23.474;2022-11-20T11:43:33;14.10;99.90
19389;DHT22;9830;41.876;23.474;2022-11-20T11:46:36;14.10;99.90
19389;DHT22;9830;41.876;23.474;2022-11-20T11:54:41;13.80;99.90
19389;DHT22;9830;41.876;23.474;2022-11-20T11:57:20;13.80;99.90
19389;DHT22;9830;41.876;23.474;2022-11-20T12:00:10;13.80;99.90
19389;DHT22;9830;41.876;23.474;2022-11-20T12:08:24;13.40;99.90
19389;DHT22;9830;41.876;23.474;2022-11-20T12:11:14;13.40;99.90
19389;DHT22;9830;41.876;23.474;2022-11-20T12:14:17;13.30;99.90
19389;DHT22;9830;41.876;23.474;2022-11-20T12:16:45;13.20;99.90
19389;DHT22;9830;41.876;23.474;2022-11-20T12:19:12;13.20;99.90
19389;DHT22;9830;41.876;23.474;2022-11-20T12:24:51;13.20;99.90
19389;DHT22;9830;41.876;23.474;2022-11-20T12:30:20;13.20;99.90
19389;DHT22;9830;41.876;23.474;2022-11-20T12:43:59;12.90;99.90
19389;DHT22;9830;41.876;23.474;2022-11-20T12:46:47;12.70;99.90
19389;DHT22;9830;41.876;23.474;2022-11-20T13:08:14;12.90;99.90
19389;DHT22;9830;41.876;23.474;2022-11-20T13:11:04;13.00;99.90
19389;DHT22;9830;41.876;23.474;2022-11-20T13:13:43;13.00;99.90
19389;DHT22;9830;41.876;23.474;2022-11-20T13:16:14;13.00;99.90
19389;DHT22;9830;41.876;23.474;2022-11-20T13:18:42;13.00;99.90
19389;DHT22;9830;41.876;23.474;2022-11-20T13:21:20;13.10;99.90
19389;DHT22;9830;41.876;23.474;2022-11-20T13:23:47;13.10;99.90
19389;DHT22;9830;41.876;23.474;2022-11-20T13:26:19;13.00;99.90
19389;DHT22;9830;41.876;23.474;2022-11-20T13:28:46;13.00;99.90
19389;DHT22;9830;41.876;23.474;2022-11-20T13:31:31;12.90;99.90
19389;DHT22;9830;41.876;23.474;2022-11-20T13:33:58;12.80;99.90
19389;DHT22;9830;41.876;23.474;2022-11-20T13:36:26;12.80;99.90
19389;DHT22;9830;41.876;23.474;2022-11-20T13:38:54;12.70;99.90
19389;DHT22;9830;41.876;23.474;2022-11-20T13:41:29;12.60;99.90
19389;DHT22;9830;41.876;23.474;2022-11-20T13:44:23;12.60;99.90
19389;DHT22;9830;41.876;23.474;2022-11-20T13:46:49;12.50;99.90
19389;DHT22;9830;41.876;23.474;2022-11-20T13:50:02;12.60;99.90
19389;DHT22;9830;41.876;23.474;2022-11-20T13:58:21;12.70;99.90
19389;DHT22;9830;41.876;23.474;2022-11-20T14:01:05;12.60;99.90
19389;DHT22;9830;41.876;23.474;2022-11-20T14:03:34;12.50;99.90
19389;DHT22;9830;41.876;23.474;2022-11-20T14:06:10;12.50;99.90
19389;DHT22;9830;41.876;23.474;2022-11-20T14:08:47;12.60;99.90
19389;DHT22;9830;41.876;23.474;2022-11-20T14:11:23;12.50;99.90
19389;DHT22;9830;41.876;23.474;2022-11-20T14:16:51;12.50;99.90
19389;DHT22;9830;41.876;23.474;2022-11-20T14:21:52;12.30;99.90
19389;DHT22;9830;41.876;23.474;2022-11-20T14:24:22;12.30;99.90
19389;DHT22;9830;41.876;23.474;2022-11-20T14:26:50;12.30;99.90
19389;DHT22;9830;41.876;23.474;2022-11-20T14:29:18;12.20;99.90
19389;DHT22;9830;41.876;23.474;2022-11-20T14:31:46;12.20;99.90
19389;DHT22;9830;41.876;23.474;2022-11-20T14:34:26;12.10;99.90
19389;DHT22;9830;41.876;23.474;2022-11-20T14:37:00;12.30;99.90
19389;DHT22;9830;41.876;23.474;2022-11-20T14:41:57;12.20;99.90
19389;DHT22;9830;41.876;23.474;2022-11-20T14:44:31;12.20;99.90
19389;DHT22;9830;41.876;23.474;2022-11-20T14:46:59;12.20;99.90
19389;DHT22;9830;41.876;23.474;2022-11-20T14:49:26;12.20;99.90
19389;DHT22;9830;41.876;23.474;2022-11-20T14:52:12;12.10;99.90
19389;DHT22;9830;41.876;23.474;2022-11-20T14:54:58;12.10;99.90
19389;DHT22;9830;41.876;23.474;2022-11-20T14:57:32;12.20;99.90
19389;DHT22;9830;41.876;23.474;2022-11-20T15:00:07;12.00;99.90
19389;DHT22;9830;41.876;23.474;2022-11-20T15:02:33;12.00;99.90
19389;DHT22;9830;41.876;23.474;2022-11-20T15:05:01;12.00;99.90
19389;DHT22;9830;41.876;23.474;2022-11-20T15:07:38;11.90;99.90
19389;DHT22;9830;41.876;23.474;2022-11-20T15:10:11;11.80;99.90
19389;DHT22;9830;41.876;23.474;2022-11-20T15:12:49;11.80;99.90
19389;DHT22;9830;41.876;23.474;2022-11-20T15:16:17;11.70;99.90
19389;DHT22;9830;41.876;23.474;2022-11-20T15:18:05;11.80;99.90
19389;DHT22;9830;41.876;23.474;2022-11-20T15:20:36;11.80;99.90
19389;DHT22;9830;41.876;23.474;2022-11-20T15:23:01;11.80;99.90
19389;DHT22;9830;41.876;23.474;2022-11-20T15:25:27;11.80;99.90
19389;DHT22;9830;41.876;23.474;2022-11-20T15:27:56;11.90;99.90
19389;DHT22;9830;41.876;23.474;2022-11-20T15:30:22;11.90;99.90
19389;DHT22;9830;41.876;23.474;2022-11-20T15:32:48;11.90;99.90
19389;DHT22;9830;41.876;23.474;2022-11-20T15:35:15;11.90;99.90
19389;DHT22;9830;41.876;23.474;2022-11-20T15:37:41;11.90;99.90
19389;DHT22;9830;41.876;23.474;2022-11-20T15:40:07;11.90;99.90
19389;DHT22;9830;41.876;23.474;2022-11-20T15:42:34;11.90;99.90
19389;DHT22;9830;41.876;23.474;2022-11-20T15:45:00;11.90;99.90
19389;DHT22;9830;41.876;23.474;2022-11-20T15:47:32;12.00;99.90
19389;DHT22;9830;41.876;23.474;2022-11-20T15:49:58;12.00;99.90
19389;DHT22;9830;41.876;23.474;2022-11-20T15:52:25;11.90;99.90
19389;DHT22;9830;41.876;23.474;2022-11-20T15:54:51;11.90;99.90
19389;DHT22;9830;41.876;23.474;2022-11-20T15:57:16;11.90;99.90
19389;DHT22;9830;41.876;23.474;2022-11-20T15:59:42;11.90;99.90
19389;DHT22;9830;41.876;23.474;2022-11-20T16:02:12;11.80;99.90
19389;DHT22;9830;41.876;23.474;2022-11-20T16:04:38;11.80;99.90
19389;DHT22;9830;41.876;23.474;2022-11-20T16:07:04;11.80;99.90
19389;DHT22;9830;41.876;23.474;2022-11-20T16:09:30;11.70;99.90
19389;DHT22;9830;41.876;23.474;2022-11-20T16:11:55;11.60;99.90
19389;DHT22;9830;41.876;23.474;2022-11-20T16:14:21;11.60;99.90
19389;DHT22;9830;41.876;23.474;2022-11-20T16:17:05;11.60;99.90
19389;DHT22;9830;41.876;23.474;2022-11-20T16:19:31;11.60;99.90
19389;DHT22;9830;41.876;23.474;2022-11-20T16:21:59;11.50;99.90
19389;DHT22;9830;41.876;23.474;2022-11-20T16:24:28;11.60;99.90
19389;DHT22;9830;41.876;23.474;2022-11-20T16:26:54;11.50;99.90
19389;DHT22;9830;41.876;23.474;2022-11-20T16:29:20;11.50;99.90
19389;DHT22;9830;41.876;23.474;2022-11-20T16:31:46;11.40;99.90
19389;DHT22;9830;41.876;23.474;2022-11-20T16:34:12;11.40;99.90
19389;DHT22;9830;41.876;23.474;2022-11-20T16:36:40;11.30;99.90
19389;DHT22;9830;41.876;23.474;2022-11-20T16:39:06;11.30;99.90
19389;DHT22;9830;41.876;23.474;2022-11-20T16:41:33;11.40;99.90
19389;DHT22;9830;41.876;23.474;2022-11-20T16:44:01;11.40;99.90
19389;DHT22;9830;41.876;23.474;2022-11-20T16:46:29;11.50;99.90
19389;DHT22;9830;41.876;23.474;2022-11-20T16:49:00;11.60;99.90
19389;DHT22;9830;41.876;23.474;2022-11-20T16:51:28;11.50;99.90
19389;DHT22;9830;41.876;23.474;2022-11-20T16:53:54;11.40;99.90
19389;DHT22;9830;41.876;23.474;2022-11-20T16:56:23;11.40;99.90
19389;DHT22;9830;41.876;23.474;2022-11-20T16:58:49;11.30;99.90
19389;DHT22;9830;41.876;23.474;2022-11-20T17:01:18;11.20;99.90
19389;DHT22;9830;41.876;23.474;2022-11-20T17:04:07;11.20;99.90
19389;DHT22;9830;41.876;23.474;2022-11-20T17:06:35;11.10;99.90
19389;DHT22;9830;41.876;23.474;2022-11-20T17:09:01;11.10;99.90
19389;DHT22;9830;41.876;23.474;2022-11-20T17:11:27;11.10;99.90
19389;DHT22;9830;41.876;23.474;2022-11-20T17:13:57;11.00;99.90
19389;DHT22;9830;41.876;23.474;2022-11-20T17:16:25;11.00;99.90
19389;DHT22;9830;41.876;23.474;2022-11-20T17:18:54;11.00;99.90
19389;DHT22;9830;41.876;23.474;2022-11-20T17:21:20;11.00;99.90
19389;DHT22;9830;41.876;23.474;2022-11-20T17:23:46;11.20;99.90
19389;DHT22;9830;41.876;23.474;2022-11-20T17:26:17;11.20;99.90
19389;DHT22;9830;41.876;23.474;2022-11-20T17:28:53;11.10;99.90